createdAt,value
2023-04-16T00:01:56.168Z,8.11
2023-04-16T00:04:23.227Z,8.07
2023-04-16T00:06:50.089Z,8.07
2023-04-16T00:09:16.901Z,8.01
2023-04-16T00:11:43.677Z,8.02
2023-04-16T00:14:10.674Z,7.97
2023-04-16T00:16:38.657Z,8.02
2023-04-16T00:19:05.576Z,7.99
2023-04-16T00:21:32.495Z,8.00
2023-04-16T00:23:59.353Z,8.00
2023-04-16T00:26:26.148Z,7.95
2023-04-16T00:28:52.956Z,7.95
2023-04-16T00:31:30.277Z,7.93
2023-04-16T00:33:57.611Z,7.96
2023-04-16T00:36:24.939Z,7.95
2023-04-16T00:38:51.713Z,7.91
2023-04-16T00:41:18.495Z,7.91
2023-04-16T00:43:45.300Z,7.87
2023-04-16T00:46:12.214Z,7.89
2023-04-16T00:48:39.939Z,7.83
2023-04-16T00:51:07.481Z,7.88
2023-04-16T00:53:34.561Z,7.88
2023-04-16T00:56:05.306Z,7.83
2023-04-16T00:58:32.729Z,7.86
2023-04-16T01:00:59.834Z,7.81
2023-04-16T01:03:39.735Z,7.81
2023-04-16T01:06:07.503Z,7.77
2023-04-16T01:08:34.414Z,7.77
2023-04-16T01:11:01.418Z,7.75
2023-04-16T01:13:28.198Z,7.78
2023-04-16T01:15:55.119Z,7.72
2023-04-16T01:18:22.412Z,7.71
2023-04-16T01:20:50.078Z,7.68
2023-04-16T01:23:18.695Z,7.69
2023-04-16T01:25:46.431Z,7.67
2023-04-16T01:28:13.243Z,7.70
2023-04-16T01:30:40.024Z,7.67
2023-04-16T01:33:08.098Z,7.70
2023-04-16T01:35:34.908Z,7.69
2023-04-16T01:38:01.727Z,7.65
2023-04-16T01:40:28.533Z,7.62
2023-04-16T01:42:55.567Z,7.64
2023-04-16T01:45:22.333Z,7.63
2023-04-16T01:47:50.403Z,7.63
2023-04-16T01:50:18.067Z,7.57
2023-04-16T01:52:44.890Z,7.62
2023-04-16T01:55:11.791Z,7.56
2023-04-16T01:57:38.615Z,7.58
2023-04-16T02:00:05.959Z,7.60
2023-04-16T02:02:32.793Z,7.58
2023-04-16T02:04:59.750Z,7.57
2023-04-16T02:07:27.506Z,7.56
2023-04-16T02:09:54.295Z,7.56
2023-04-16T02:12:21.097Z,7.54
2023-04-16T02:14:47.872Z,7.56
2023-04-16T02:17:15.573Z,7.55
2023-04-16T02:19:42.369Z,7.52
2023-04-16T02:22:09.128Z,7.50
2023-04-16T02:24:36.096Z,7.48
2023-04-16T02:27:02.914Z,7.46
2023-04-16T02:29:29.791Z,7.42
2023-04-16T02:31:56.696Z,7.44
2023-04-16T02:34:23.616Z,7.44
2023-04-16T02:36:50.544Z,7.41
2023-04-16T02:39:17.420Z,7.39
2023-04-16T02:41:44.218Z,7.41
2023-04-16T02:44:10.997Z,7.37
2023-04-16T02:46:37.784Z,7.40
2023-04-16T02:49:04.554Z,7.39
2023-04-16T02:51:33.350Z,7.39
2023-04-16T02:54:00.163Z,7.40
2023-04-16T02:56:26.926Z,7.36
2023-04-16T02:58:53.768Z,7.38
2023-04-16T03:01:20.641Z,7.37
2023-04-16T03:03:47.516Z,7.34
2023-04-16T03:06:14.404Z,7.33
2023-04-16T03:08:41.166Z,7.34
2023-04-16T03:11:07.983Z,7.33
2023-04-16T03:13:34.771Z,7.34
2023-04-16T03:16:01.641Z,7.37
2023-04-16T03:18:28.625Z,7.35
2023-04-16T03:20:55.422Z,7.34
2023-04-16T03:23:22.263Z,7.34
2023-04-16T03:25:49.072Z,7.33
2023-04-16T03:28:16.285Z,7.32
2023-04-16T03:30:43.151Z,7.30
2023-04-16T03:33:09.930Z,7.28
2023-04-16T03:35:36.706Z,7.29
2023-04-16T03:38:03.570Z,7.28
2023-04-16T03:40:30.376Z,7.27
2023-04-16T03:42:57.156Z,7.26
2023-04-16T03:45:24.004Z,7.31
2023-04-16T03:47:52.946Z,7.26
2023-04-16T03:50:20.028Z,7.27
2023-04-16T03:52:49.335Z,7.29
2023-04-16T03:55:16.175Z,7.27
2023-04-16T03:57:43.017Z,7.24
2023-04-16T04:00:10.195Z,7.22
2023-04-16T04:02:37.076Z,7.25
2023-04-16T04:05:04.251Z,7.23
2023-04-16T04:07:31.148Z,7.20
2023-04-16T04:09:57.970Z,7.22
2023-04-16T04:12:25.072Z,7.21
2023-04-16T04:14:51.832Z,7.23
2023-04-16T04:17:18.646Z,7.23
2023-04-16T04:20:00.035Z,7.22
2023-04-16T04:22:27.912Z,7.23
2023-04-16T04:24:54.706Z,7.25
2023-04-16T04:27:21.448Z,7.26
2023-04-16T04:29:48.262Z,7.23
2023-04-16T04:32:15.080Z,7.26
2023-04-16T04:34:41.993Z,7.30
2023-04-16T04:37:08.769Z,7.31
2023-04-16T04:39:35.573Z,7.33
2023-04-16T04:42:03.435Z,7.33
2023-04-16T04:44:30.288Z,7.32
2023-04-16T04:46:57.089Z,7.31
2023-04-16T04:49:23.992Z,7.35
2023-04-16T04:51:50.975Z,7.39
2023-04-16T04:54:17.742Z,7.41
2023-04-16T04:56:45.928Z,7.41
2023-04-16T04:59:12.879Z,7.44
2023-04-16T05:01:39.734Z,7.43
2023-04-16T05:04:06.592Z,7.46
2023-04-16T05:06:33.465Z,7.44
2023-04-16T05:09:00.601Z,7.51
2023-04-16T05:11:27.451Z,7.51
2023-04-16T05:13:54.277Z,7.58
2023-04-16T05:16:21.111Z,7.61
2023-04-16T05:18:47.949Z,7.68
2023-04-16T05:21:14.770Z,7.74
2023-04-16T05:23:41.548Z,7.82
2023-04-16T05:26:08.325Z,7.83
2023-04-16T05:28:35.131Z,7.88
2023-04-16T05:31:02.231Z,7.94
2023-04-16T05:33:29.077Z,8.02
2023-04-16T05:35:55.840Z,8.12
2023-04-16T05:38:22.638Z,8.17
2023-04-16T05:40:49.560Z,8.27
2023-04-16T05:43:16.545Z,8.29
2023-04-16T05:45:43.372Z,8.44
2023-04-16T05:48:10.435Z,8.48
2023-04-16T05:50:37.414Z,8.55
2023-04-16T05:53:06.037Z,8.56
2023-04-16T05:55:32.953Z,8.62
2023-04-16T05:57:59.762Z,8.62
2023-04-16T06:00:27.295Z,8.66
2023-04-16T06:02:54.183Z,8.68
2023-04-16T06:05:21.267Z,8.67
2023-04-16T06:07:48.200Z,8.68
2023-04-16T06:10:15.074Z,8.63
2023-04-16T06:12:41.835Z,8.73
2023-04-16T06:15:09.324Z,8.84
2023-04-16T06:17:36.188Z,8.90
2023-04-16T06:20:03.094Z,8.95
2023-04-16T06:22:29.953Z,9.13
2023-04-16T06:24:56.934Z,9.24
2023-04-16T06:27:23.796Z,9.31
2023-04-16T06:29:50.816Z,9.36
2023-04-16T06:32:17.691Z,9.45
2023-04-16T06:34:44.485Z,9.55
2023-04-16T06:37:11.258Z,9.63
2023-04-16T06:39:38.097Z,9.71
2023-04-16T06:42:04.938Z,9.74
2023-04-16T06:44:31.915Z,9.80
2023-04-16T06:46:58.803Z,9.96
2023-04-16T06:49:25.735Z,10.02
2023-04-16T06:51:52.512Z,10.20
2023-04-16T06:54:19.891Z,10.36
2023-04-16T06:56:46.648Z,10.45
2023-04-16T06:59:13.475Z,10.60
2023-04-16T07:01:41.507Z,10.74
2023-04-16T07:04:08.350Z,10.80
2023-04-16T07:06:35.250Z,10.90
2023-04-16T07:09:02.054Z,10.97
2023-04-16T07:11:29.039Z,11.11
2023-04-16T07:13:55.872Z,11.20
2023-04-16T07:16:22.668Z,11.32
2023-04-16T07:18:49.616Z,11.37
2023-04-16T07:21:16.621Z,11.45
2023-04-16T07:23:43.531Z,11.51
2023-04-16T07:26:11.666Z,11.61
2023-04-16T07:28:38.492Z,11.71
2023-04-16T07:31:05.399Z,11.99
2023-04-16T07:33:32.224Z,12.20
2023-04-16T07:35:59.017Z,12.32
2023-04-16T07:38:25.934Z,12.46
2023-04-16T07:40:52.703Z,12.51
2023-04-16T07:43:19.516Z,12.59
2023-04-16T07:45:46.382Z,12.58
2023-04-16T07:48:13.262Z,12.65
2023-04-16T07:50:40.143Z,12.66
2023-04-16T07:53:07.830Z,12.68
2023-04-16T07:55:34.750Z,12.76
2023-04-16T07:58:02.917Z,12.85
2023-04-16T08:00:29.825Z,12.95
2023-04-16T08:02:56.790Z,13.13
2023-04-16T08:05:23.839Z,13.28
2023-04-16T08:07:50.676Z,13.55
2023-04-16T08:10:17.482Z,13.66
2023-04-16T08:12:44.558Z,13.82
2023-04-16T08:15:11.684Z,13.97
2023-04-16T08:17:38.843Z,14.28
2023-04-16T08:20:06.502Z,14.57
2023-04-16T08:22:33.664Z,15.23
2023-04-16T08:25:00.673Z,16.14
2023-04-16T08:27:27.519Z,17.06
2023-04-16T08:29:54.334Z,17.87
2023-04-16T08:32:21.243Z,18.75
2023-04-16T08:34:48.097Z,19.48
2023-04-16T08:37:14.892Z,19.98
2023-04-16T08:39:41.855Z,19.98
2023-04-16T08:42:38.976Z,19.94
2023-04-16T08:45:16.988Z,19.72
2023-04-16T08:47:50.932Z,19.94
2023-04-16T08:50:26.139Z,19.85
2023-04-16T08:52:59.472Z,20.05
2023-04-16T08:55:47.797Z,20.55
2023-04-16T08:58:15.558Z,21.11
2023-04-16T09:00:42.381Z,21.53
2023-04-16T09:03:09.687Z,21.70
2023-04-16T09:05:36.625Z,21.76
2023-04-16T09:08:03.908Z,21.62
2023-04-16T09:10:30.690Z,21.49
2023-04-16T09:12:57.632Z,21.15
2023-04-16T09:15:25.754Z,20.77
2023-04-16T09:17:53.124Z,20.26
2023-04-16T09:20:20.226Z,19.96
2023-04-16T09:22:47.099Z,19.47
2023-04-16T09:25:13.958Z,19.44
2023-04-16T09:27:40.835Z,19.22
2023-04-16T09:30:23.699Z,19.27
2023-04-16T09:33:00.067Z,19.45
2023-04-16T09:35:26.930Z,19.65
2023-04-16T09:37:57.573Z,19.91
2023-04-16T09:40:26.251Z,20.25
2023-04-16T09:42:53.668Z,20.64
2023-04-16T09:45:20.428Z,20.86
2023-04-16T09:47:47.262Z,20.97
2023-04-16T09:50:18.933Z,20.81
2023-04-16T09:52:48.324Z,20.80
2023-04-16T09:55:15.524Z,20.79
2023-04-16T09:57:42.359Z,20.79
2023-04-16T10:00:10.352Z,21.24
2023-04-16T10:02:42.088Z,21.47
2023-04-16T10:05:09.784Z,21.29
2023-04-16T10:07:37.377Z,20.91
2023-04-16T10:10:05.079Z,20.67
2023-04-16T10:12:33.008Z,20.31
2023-04-16T10:15:00.211Z,20.01
2023-04-16T10:17:30.178Z,19.79
2023-04-16T10:19:58.400Z,19.81
2023-04-16T10:22:26.414Z,19.86
2023-04-16T10:24:53.304Z,19.97
2023-04-16T10:27:20.123Z,20.38
2023-04-16T10:29:46.987Z,20.83
2023-04-16T10:32:13.874Z,21.15
2023-04-16T10:34:40.733Z,21.57
2023-04-16T10:37:07.485Z,22.17
2023-04-16T10:39:37.421Z,22.72
2023-04-16T10:42:11.780Z,23.46
2023-04-16T10:44:40.274Z,24.04
2023-04-16T10:47:14.408Z,24.54
2023-04-16T10:49:47.642Z,25.05
2023-04-16T10:52:19.104Z,25.46
2023-04-16T10:54:46.890Z,25.69
2023-04-16T10:57:17.886Z,25.61
2023-04-16T10:59:44.994Z,24.93
2023-04-16T11:02:16.156Z,24.35
2023-04-16T11:04:47.334Z,23.70
2023-04-16T11:07:17.949Z,23.50
2023-04-16T11:10:03.233Z,23.43
2023-04-16T11:12:30.042Z,23.93
2023-04-16T11:15:08.205Z,24.17
2023-04-16T11:17:43.348Z,24.24
2023-04-16T11:20:30.631Z,23.78
2023-04-16T11:22:57.957Z,23.45
2023-04-16T11:25:31.742Z,22.99
2023-04-16T11:28:01.647Z,22.70
2023-04-16T11:30:35.995Z,22.46
2023-04-16T11:33:09.893Z,22.30
2023-04-16T11:35:36.713Z,22.13
2023-04-16T11:38:04.220Z,22.00
2023-04-16T11:40:34.155Z,22.04
2023-04-16T11:43:27.192Z,21.88
2023-04-16T11:45:58.509Z,21.66
2023-04-16T11:48:25.359Z,21.47
2023-04-16T11:50:58.210Z,21.42
2023-04-16T11:53:25.068Z,21.43
2023-04-16T11:55:51.893Z,21.52
2023-04-16T11:58:20.172Z,21.43
2023-04-16T12:00:49.099Z,21.35
2023-04-16T12:03:16.237Z,21.34
2023-04-16T12:05:43.363Z,21.29
2023-04-16T12:08:11.537Z,21.33
2023-04-16T12:10:59.791Z,21.37
2023-04-16T12:13:26.637Z,21.53
2023-04-16T12:15:54.676Z,21.91
2023-04-16T12:18:27.249Z,22.11
2023-04-16T12:20:54.205Z,22.17
2023-04-16T12:23:28.672Z,22.28
2023-04-16T12:25:55.637Z,22.33
2023-04-16T12:28:36.722Z,22.81
2023-04-16T12:31:03.658Z,22.95
2023-04-16T12:33:30.636Z,23.20
2023-04-16T12:35:57.504Z,23.38
2023-04-16T12:38:25.615Z,23.50
2023-04-16T12:40:56.948Z,23.58
2023-04-16T12:43:24.456Z,23.50
2023-04-16T12:45:51.525Z,23.36
2023-04-16T12:48:18.297Z,23.09
2023-04-16T12:50:45.128Z,22.60
2023-04-16T12:53:12.104Z,22.12
2023-04-16T12:55:39.213Z,21.99
2023-04-16T12:58:06.709Z,21.78
2023-04-16T13:00:33.568Z,21.71
2023-04-16T13:03:00.563Z,21.59
2023-04-16T13:05:27.484Z,21.64
2023-04-16T13:07:54.353Z,21.65
2023-04-16T13:10:22.222Z,21.75
2023-04-16T13:12:49.273Z,21.64
2023-04-16T13:15:16.230Z,21.60
2023-04-16T13:17:43.153Z,21.67
2023-04-16T13:20:10.642Z,21.59
2023-04-16T13:22:37.697Z,21.38
2023-04-16T13:25:05.135Z,21.27
2023-04-16T13:27:32.717Z,21.27
2023-04-16T13:29:59.521Z,21.29
2023-04-16T13:32:26.502Z,21.26
2023-04-16T13:34:53.312Z,21.26
2023-04-16T13:37:20.090Z,21.21
2023-04-16T13:39:47.422Z,21.15
2023-04-16T13:42:14.255Z,21.06
2023-04-16T13:44:41.182Z,21.00
2023-04-16T13:47:08.217Z,20.90
2023-04-16T13:49:36.081Z,20.85
2023-04-16T13:52:03.457Z,20.80
2023-04-16T13:54:30.271Z,20.73
2023-04-16T13:56:57.149Z,20.64
2023-04-16T13:59:24.050Z,20.44
2023-04-16T14:01:51.468Z,20.33
2023-04-16T14:04:18.799Z,20.38
2023-04-16T14:06:45.750Z,20.34
2023-04-16T14:09:12.732Z,20.41
2023-04-16T14:11:39.703Z,20.34
2023-04-16T14:14:06.734Z,20.18
2023-04-16T14:16:34.614Z,19.99
2023-04-16T14:19:01.514Z,19.84
2023-04-16T14:21:28.853Z,19.57
2023-04-16T14:23:55.901Z,19.44
2023-04-16T14:26:23.005Z,19.37
2023-04-16T14:28:50.853Z,19.27
2023-04-16T14:31:18.359Z,19.17
2023-04-16T14:33:45.411Z,19.07
2023-04-16T14:36:12.295Z,19.00
2023-04-16T14:38:39.668Z,18.86
2023-04-16T14:41:06.575Z,18.76
2023-04-16T14:43:33.475Z,18.66
2023-04-16T14:46:00.356Z,18.50
2023-04-16T14:48:27.198Z,18.39
2023-04-16T14:50:54.229Z,18.33
2023-04-16T14:53:21.050Z,18.26
2023-04-16T14:55:47.925Z,18.25
2023-04-16T14:58:14.707Z,18.17
2023-04-16T15:00:41.477Z,18.13
2023-04-16T15:03:08.420Z,17.94
2023-04-16T15:05:35.688Z,17.89
2023-04-16T15:08:02.588Z,17.83
2023-04-16T15:10:29.791Z,17.73
2023-04-16T15:12:56.580Z,17.65
2023-04-16T15:15:23.372Z,17.54
2023-04-16T15:17:51.162Z,17.39
2023-04-16T15:20:18.445Z,17.30
2023-04-16T15:22:45.241Z,17.22
2023-04-16T15:25:12.113Z,17.12
2023-04-16T15:27:38.894Z,16.94
2023-04-16T15:30:06.672Z,16.77
2023-04-16T15:32:33.507Z,16.56
2023-04-16T15:35:02.276Z,16.29
2023-04-16T15:37:29.119Z,16.16
2023-04-16T15:39:56.704Z,15.87
2023-04-16T15:42:23.952Z,15.90
2023-04-16T15:44:50.750Z,15.84
2023-04-16T15:47:17.509Z,15.66
2023-04-16T15:49:44.389Z,15.51
2023-04-16T15:52:12.020Z,15.38
2023-04-16T15:54:38.857Z,15.25
2023-04-16T15:57:05.672Z,15.13
2023-04-16T15:59:32.972Z,14.98
2023-04-16T16:01:59.888Z,14.82
2023-04-16T16:04:28.264Z,14.66
2023-04-16T16:06:55.230Z,14.43
2023-04-16T16:09:26.324Z,14.20
2023-04-16T16:11:54.394Z,14.01
2023-04-16T16:14:22.018Z,13.86
2023-04-16T16:16:48.814Z,13.71
2023-04-16T16:19:15.776Z,13.54
2023-04-16T16:21:42.715Z,13.42
2023-04-16T16:24:09.696Z,13.27
2023-04-16T16:26:36.719Z,13.15
2023-04-16T16:29:03.640Z,13.06
2023-04-16T16:31:30.581Z,12.91
2023-04-16T16:33:57.407Z,12.83
2023-04-16T16:36:24.188Z,12.73
2023-04-16T16:38:51.323Z,12.57
2023-04-16T16:41:18.106Z,12.43
2023-04-16T16:43:44.900Z,12.26
2023-04-16T16:46:11.903Z,12.12
2023-04-16T16:48:38.887Z,12.00
2023-04-16T16:51:09.758Z,11.87
2023-04-16T16:53:36.620Z,11.76
2023-04-16T16:56:03.512Z,11.62
2023-04-16T16:58:30.566Z,11.55
2023-04-16T17:00:57.381Z,11.39
2023-04-16T17:03:24.189Z,11.25
2023-04-16T17:05:51.236Z,11.14
2023-04-16T17:08:17.973Z,11.02
2023-04-16T17:10:44.812Z,10.90
2023-04-16T17:13:13.718Z,10.75
2023-04-16T17:15:41.043Z,10.57
2023-04-16T17:18:07.909Z,10.47
2023-04-16T17:20:34.695Z,10.29
2023-04-16T17:23:01.612Z,10.18
2023-04-16T17:25:28.376Z,10.06
2023-04-16T17:27:55.127Z,9.85
2023-04-16T17:30:23.871Z,9.74
2023-04-16T17:32:50.752Z,9.59
2023-04-16T17:35:17.573Z,9.46
2023-04-16T17:37:44.349Z,9.35
2023-04-16T17:40:12.787Z,9.20
2023-04-16T17:42:39.789Z,9.12
2023-04-16T17:45:07.389Z,9.06
2023-04-16T17:47:37.633Z,8.99
2023-04-16T17:50:05.205Z,8.90
2023-04-16T17:52:31.984Z,8.84
2023-04-16T17:55:01.684Z,8.79
2023-04-16T17:57:28.787Z,8.71
2023-04-16T17:59:55.735Z,8.68
2023-04-16T18:02:22.981Z,8.58
2023-04-16T18:04:50.120Z,8.51
2023-04-16T18:07:17.094Z,8.43
2023-04-16T18:09:43.867Z,8.37
2023-04-16T18:12:10.855Z,8.26
2023-04-16T18:14:38.807Z,8.22
2023-04-16T18:17:06.672Z,8.13
2023-04-16T18:19:33.651Z,8.11
2023-04-16T18:22:00.725Z,8.11
2023-04-16T18:24:27.531Z,8.10
2023-04-16T18:26:55.296Z,8.12
2023-04-16T18:29:25.065Z,8.09
2023-04-16T18:31:52.203Z,8.07
2023-04-16T18:34:19.107Z,8.03
2023-04-16T18:36:45.858Z,7.99
2023-04-16T18:39:12.667Z,7.95
2023-04-16T18:41:40.816Z,7.88
2023-04-16T18:44:07.655Z,7.86
2023-04-16T18:46:34.416Z,7.82
2023-04-16T18:49:01.448Z,7.81
2023-04-16T18:51:28.510Z,7.83
2023-04-16T18:53:55.440Z,7.82
2023-04-16T18:56:22.197Z,7.82
2023-04-16T18:58:49.436Z,7.82
2023-04-16T19:01:16.671Z,7.83
2023-04-16T19:03:43.615Z,7.79
2023-04-16T19:06:10.611Z,7.82
2023-04-16T19:08:37.528Z,7.75
2023-04-16T19:11:04.336Z,7.81
2023-04-16T19:13:32.400Z,7.80
2023-04-16T19:15:59.978Z,7.78
2023-04-16T19:18:26.955Z,7.79
2023-04-16T19:21:00.784Z,7.79
2023-04-16T19:23:28.003Z,7.77
2023-04-16T19:25:57.957Z,7.77
2023-04-16T19:28:25.117Z,7.81
2023-04-16T19:30:52.406Z,7.78
2023-04-16T19:33:19.291Z,7.76
2023-04-16T19:35:46.837Z,7.73
2023-04-16T19:38:13.690Z,7.61
2023-04-16T19:40:41.112Z,7.62
2023-04-16T19:43:07.977Z,7.56
2023-04-16T19:45:35.174Z,7.58
2023-04-16T19:48:02.053Z,7.56
2023-04-16T19:50:28.843Z,7.57
2023-04-16T19:52:55.665Z,7.50
2023-04-16T19:55:22.815Z,7.46
2023-04-16T19:57:49.829Z,7.37
2023-04-16T20:00:17.133Z,7.30
2023-04-16T20:02:44.047Z,7.30
2023-04-16T20:05:11.181Z,7.24
2023-04-16T20:07:37.965Z,7.12
2023-04-16T20:10:05.157Z,7.10
2023-04-16T20:12:32.216Z,7.04
2023-04-16T20:14:59.285Z,6.98
2023-04-16T20:17:26.143Z,6.96
2023-04-16T20:19:52.882Z,6.90
2023-04-16T20:22:19.779Z,6.86
2023-04-16T20:24:49.281Z,6.85
2023-04-16T20:27:17.090Z,6.82
2023-04-16T20:29:43.840Z,6.76
2023-04-16T20:32:10.739Z,6.72
2023-04-16T20:34:38.141Z,6.77
2023-04-16T20:37:05.063Z,6.77
2023-04-16T20:39:34.257Z,6.75
2023-04-16T20:42:04.224Z,6.65
2023-04-16T20:44:40.448Z,6.62
2023-04-16T20:47:11.716Z,6.44
2023-04-16T20:49:38.567Z,6.47
2023-04-16T20:52:05.651Z,6.44
2023-04-16T20:54:32.387Z,6.43
2023-04-16T20:56:59.190Z,6.34
2023-04-16T20:59:26.177Z,6.28
2023-04-16T21:01:53.268Z,6.21
2023-04-16T21:04:20.496Z,6.17
2023-04-16T21:06:47.438Z,6.13
2023-04-16T21:09:14.249Z,6.10
2023-04-16T21:11:41.226Z,6.11
2023-04-16T21:14:07.988Z,6.02
2023-04-16T21:16:34.761Z,6.01
2023-04-16T21:19:01.600Z,6.00
2023-04-16T21:21:28.385Z,6.03
2023-04-16T21:23:55.170Z,6.15
2023-04-16T21:26:21.918Z,6.20
2023-04-16T21:28:48.666Z,6.28
2023-04-16T21:31:15.530Z,6.35
2023-04-16T21:33:42.357Z,6.42
2023-04-16T21:36:10.157Z,6.47
2023-04-16T21:38:36.904Z,6.54
2023-04-16T21:41:03.712Z,6.59
2023-04-16T21:43:32.119Z,6.63
2023-04-16T21:45:59.591Z,6.69
2023-04-16T21:48:27.116Z,6.70
2023-04-16T21:50:58.167Z,6.75
2023-04-16T21:53:26.029Z,6.76
2023-04-16T21:55:52.802Z,6.77
2023-04-16T21:58:19.563Z,6.81
2023-04-16T22:00:47.272Z,6.85
2023-04-16T22:03:14.482Z,6.84
2023-04-16T22:05:41.343Z,6.84
2023-04-16T22:08:23.250Z,6.90
2023-04-16T22:10:51.557Z,6.91
2023-04-16T22:13:18.437Z,6.86
2023-04-16T22:15:45.267Z,6.95
2023-04-16T22:18:12.468Z,6.92
2023-04-16T22:20:39.793Z,6.96
2023-04-16T22:23:06.874Z,6.96
2023-04-16T22:25:33.764Z,6.97
2023-04-16T22:28:01.582Z,6.98
2023-04-16T22:30:28.492Z,6.98
2023-04-16T22:32:55.352Z,6.98
2023-04-16T22:35:22.137Z,6.96
2023-04-16T22:37:48.890Z,6.99
2023-04-16T22:40:15.989Z,6.97
2023-04-16T22:42:42.755Z,6.99
2023-04-16T22:45:09.939Z,6.91
2023-04-16T22:47:36.874Z,6.99
2023-04-16T22:50:03.711Z,6.96
2023-04-16T22:52:30.491Z,7.00
2023-04-16T22:54:57.301Z,7.01
2023-04-16T22:57:26.777Z,7.01
2023-04-16T22:59:53.581Z,7.00
2023-04-16T23:02:21.225Z,7.00
2023-04-16T23:04:48.147Z,6.99
2023-04-16T23:07:15.633Z,7.00
2023-04-16T23:09:42.728Z,7.01
2023-04-16T23:12:09.513Z,7.03
2023-04-16T23:14:37.060Z,7.03
2023-04-16T23:17:03.907Z,7.03
2023-04-16T23:19:31.797Z,7.02
2023-04-16T23:21:58.887Z,7.02
2023-04-16T23:24:25.621Z,7.02
2023-04-16T23:26:52.802Z,7.01
2023-04-16T23:29:20.760Z,6.98
2023-04-16T23:31:47.956Z,6.98
2023-04-16T23:34:14.950Z,6.96
2023-04-16T23:36:41.826Z,6.96
2023-04-16T23:39:08.686Z,6.94
2023-04-16T23:41:35.704Z,6.91
2023-04-16T23:44:02.502Z,6.95
2023-04-16T23:46:29.247Z,6.92
2023-04-16T23:48:56.069Z,6.90
2023-04-16T23:51:22.827Z,6.90
2023-04-16T23:53:49.573Z,6.90
2023-04-16T23:56:16.700Z,6.76
2023-04-16T23:58:43.560Z,6.87
